createdAt,value
2023-04-09T00:00:36.855Z,958.80
2023-04-09T00:01:36.931Z,958.79
2023-04-09T00:02:36.880Z,958.78
2023-04-09T00:03:36.843Z,958.75
2023-04-09T00:04:36.768Z,958.72
2023-04-09T00:05:36.752Z,958.70
2023-04-09T00:06:36.754Z,958.73
2023-04-09T00:07:36.729Z,958.72
2023-04-09T00:08:36.714Z,958.70
2023-04-09T00:09:36.764Z,958.72
2023-04-09T00:10:36.674Z,958.73
2023-04-09T00:11:36.677Z,958.69
2023-04-09T00:12:36.681Z,958.70
2023-04-09T00:13:39.599Z,958.67
2023-04-09T00:14:36.652Z,958.71
2023-04-09T00:15:36.597Z,958.73
2023-04-09T00:16:36.665Z,958.74
2023-04-09T00:17:36.665Z,958.75
2023-04-09T00:18:36.571Z,958.74
2023-04-09T00:19:36.562Z,958.73
2023-04-09T00:20:36.556Z,958.74
2023-04-09T00:21:36.554Z,958.76
2023-04-09T00:22:36.526Z,958.75
2023-04-09T00:23:36.513Z,958.76
2023-04-09T00:24:36.504Z,958.77
2023-04-09T00:25:36.488Z,958.77
2023-04-09T00:26:36.497Z,958.74
2023-04-09T00:27:36.458Z,958.72
2023-04-09T00:28:36.456Z,958.77
2023-04-09T00:29:36.446Z,958.73
2023-04-09T00:30:36.419Z,958.78
2023-04-09T00:31:36.439Z,958.73
2023-04-09T00:32:36.440Z,958.70
2023-04-09T00:33:36.419Z,958.73
2023-04-09T00:34:36.378Z,958.69
2023-04-09T00:35:36.407Z,958.76
2023-04-09T00:36:36.377Z,958.73
2023-04-09T00:37:36.314Z,958.75
2023-04-09T00:38:36.346Z,958.77
2023-04-09T00:39:36.321Z,958.78
2023-04-09T00:40:36.280Z,958.77
2023-04-09T00:41:36.274Z,958.79
2023-04-09T00:42:36.268Z,958.73
2023-04-09T00:43:36.280Z,958.77
2023-04-09T00:44:36.270Z,958.78
2023-04-09T00:45:36.275Z,958.76
2023-04-09T00:46:36.244Z,958.78
2023-04-09T00:47:36.263Z,958.77
2023-04-09T00:48:36.181Z,958.77
2023-04-09T00:49:36.185Z,958.77
2023-04-09T00:50:36.163Z,958.74
2023-04-09T00:51:36.136Z,958.75
2023-04-09T00:52:36.149Z,958.79
2023-04-09T00:53:36.127Z,958.75
2023-04-09T00:54:36.090Z,958.81
2023-04-09T00:55:36.092Z,958.79
2023-04-09T00:56:36.080Z,958.82
2023-04-09T00:57:36.084Z,958.80
2023-04-09T00:58:36.056Z,958.82
2023-04-09T00:59:36.050Z,958.79
2023-04-09T01:00:36.055Z,958.78
2023-04-09T01:01:36.215Z,958.82
2023-04-09T01:02:36.240Z,958.80
2023-04-09T01:03:36.259Z,958.81
2023-04-09T01:04:35.963Z,958.80
2023-04-09T01:05:35.958Z,958.79
2023-04-09T01:06:35.952Z,958.81
2023-04-09T01:07:35.960Z,958.77
2023-04-09T01:08:35.916Z,958.76
2023-04-09T01:09:35.925Z,958.77
2023-04-09T01:10:35.901Z,958.77
2023-04-09T01:11:36.015Z,958.79
2023-04-09T01:12:35.882Z,958.80
2023-04-09T01:13:35.867Z,958.77
2023-04-09T01:14:35.846Z,958.76
2023-04-09T01:15:35.822Z,958.80
2023-04-09T01:16:35.888Z,958.77
2023-04-09T01:17:35.914Z,958.79
2023-04-09T01:18:35.788Z,958.79
2023-04-09T01:19:35.801Z,958.79
2023-04-09T01:20:35.760Z,958.77
2023-04-09T01:21:35.760Z,958.74
2023-04-09T01:22:35.747Z,958.76
2023-04-09T01:23:35.726Z,958.75
2023-04-09T01:24:35.711Z,958.75
2023-04-09T01:25:35.689Z,958.77
2023-04-09T01:26:35.692Z,958.73
2023-04-09T01:27:35.686Z,958.77
2023-04-09T01:28:35.645Z,958.77
2023-04-09T01:29:35.661Z,958.76
2023-04-09T01:30:35.658Z,958.79
2023-04-09T01:31:35.620Z,958.74
2023-04-09T01:32:35.611Z,958.80
2023-04-09T01:33:35.602Z,958.80
2023-04-09T01:34:35.564Z,958.79
2023-04-09T01:35:35.623Z,958.80
2023-04-09T01:36:35.550Z,958.80
2023-04-09T01:37:35.531Z,958.81
2023-04-09T01:38:35.526Z,958.83
2023-04-09T01:39:35.521Z,958.83
2023-04-09T01:40:35.519Z,958.81
2023-04-09T01:41:35.482Z,958.79
2023-04-09T01:42:35.476Z,958.80
2023-04-09T01:43:35.441Z,958.81
2023-04-09T01:44:35.475Z,958.81
2023-04-09T01:45:35.469Z,958.82
2023-04-09T01:46:35.519Z,958.87
2023-04-09T01:47:35.500Z,958.85
2023-04-09T01:48:35.390Z,958.85
2023-04-09T01:49:35.377Z,958.87
2023-04-09T01:50:35.381Z,958.89
2023-04-09T01:51:35.405Z,958.86
2023-04-09T01:52:35.339Z,958.88
2023-04-09T01:53:35.331Z,958.88
2023-04-09T01:54:35.311Z,958.86
2023-04-09T01:55:35.297Z,958.89
2023-04-09T01:56:35.323Z,958.83
2023-04-09T01:57:35.293Z,958.88
2023-04-09T01:58:35.298Z,958.86
2023-04-09T01:59:35.247Z,958.86
2023-04-09T02:00:35.242Z,958.83
2023-04-09T02:01:35.342Z,958.83
2023-04-09T02:02:35.364Z,958.83
2023-04-09T02:03:35.241Z,958.81
2023-04-09T02:04:35.177Z,958.85
2023-04-09T02:05:35.167Z,958.83
2023-04-09T02:06:35.154Z,958.82
2023-04-09T02:07:35.176Z,958.86
2023-04-09T02:08:35.127Z,958.83
2023-04-09T02:09:35.134Z,958.84
2023-04-09T02:10:35.119Z,958.87
2023-04-09T02:11:35.095Z,958.84
2023-04-09T02:12:35.095Z,958.82
2023-04-09T02:13:35.051Z,958.84
2023-04-09T02:14:35.036Z,958.82
2023-04-09T02:15:35.100Z,958.82
2023-04-09T02:16:35.032Z,958.80
2023-04-09T02:17:35.069Z,958.75
2023-04-09T02:18:35.038Z,958.76
2023-04-09T02:19:34.977Z,958.76
2023-04-09T02:20:34.971Z,958.71
2023-04-09T02:21:34.968Z,958.74
2023-04-09T02:22:34.952Z,958.74
2023-04-09T02:23:34.975Z,958.71
2023-04-09T02:24:34.927Z,958.70
2023-04-09T02:25:34.920Z,958.73
2023-04-09T02:26:34.894Z,958.67
2023-04-09T02:27:35.029Z,958.72
2023-04-09T02:28:34.886Z,958.67
2023-04-09T02:29:34.881Z,958.70
2023-04-09T02:30:34.833Z,958.67
2023-04-09T02:31:34.877Z,958.69
2023-04-09T02:32:34.836Z,958.65
2023-04-09T02:33:34.831Z,958.67
2023-04-09T02:34:34.834Z,958.69
2023-04-09T02:35:34.835Z,958.73
2023-04-09T02:36:34.775Z,958.68
2023-04-09T02:37:34.754Z,958.77
2023-04-09T02:38:34.733Z,958.76
2023-04-09T02:39:34.706Z,958.81
2023-04-09T02:40:34.753Z,958.80
2023-04-09T02:41:34.697Z,958.81
2023-04-09T02:42:34.706Z,958.85
2023-04-09T02:43:34.663Z,958.86
2023-04-09T02:44:34.661Z,958.86
2023-04-09T02:45:34.637Z,958.84
2023-04-09T02:46:34.654Z,958.84
2023-04-09T02:47:34.662Z,958.85
2023-04-09T02:48:34.620Z,958.83
2023-04-09T02:49:34.582Z,958.82
2023-04-09T02:50:34.585Z,958.82
2023-04-09T02:51:34.570Z,958.88
2023-04-09T02:52:34.574Z,958.86
2023-04-09T02:53:34.543Z,958.85
2023-04-09T02:54:34.519Z,958.88
2023-04-09T02:55:34.516Z,958.88
2023-04-09T02:56:34.529Z,958.84
2023-04-09T02:57:34.503Z,958.86
2023-04-09T02:58:34.497Z,958.83
2023-04-09T02:59:34.467Z,958.85
2023-04-09T03:00:34.455Z,958.86
2023-04-09T03:01:34.473Z,958.86
2023-04-09T03:02:34.540Z,958.85
2023-04-09T03:03:34.479Z,958.92
2023-04-09T03:04:34.428Z,958.88
2023-04-09T03:05:34.459Z,958.93
2023-04-09T03:06:34.383Z,958.89
2023-04-09T03:07:34.375Z,958.89
2023-04-09T03:08:34.354Z,958.92
2023-04-09T03:09:34.337Z,958.90
2023-04-09T03:10:34.366Z,958.89
2023-04-09T03:11:34.305Z,958.89
2023-04-09T03:12:34.284Z,958.86
2023-04-09T03:13:34.282Z,958.86
2023-04-09T03:14:35.277Z,958.91
2023-04-09T03:15:34.290Z,958.88
2023-04-09T03:16:34.244Z,958.88
2023-04-09T03:17:34.251Z,958.88
2023-04-09T03:18:34.222Z,958.91
2023-04-09T03:19:34.230Z,958.92
2023-04-09T03:20:34.211Z,958.91
2023-04-09T03:21:34.207Z,958.90
2023-04-09T03:22:34.172Z,958.88
2023-04-09T03:23:34.150Z,958.88
2023-04-09T03:24:34.171Z,958.90
2023-04-09T03:25:34.137Z,958.88
2023-04-09T03:26:34.111Z,958.86
2023-04-09T03:27:34.102Z,958.87
2023-04-09T03:28:34.098Z,958.80
2023-04-09T03:29:34.070Z,958.84
2023-04-09T03:30:34.081Z,958.84
2023-04-09T03:31:34.084Z,958.81
2023-04-09T03:32:34.046Z,958.82
2023-04-09T03:33:34.037Z,958.81
2023-04-09T03:34:34.017Z,958.81
2023-04-09T03:35:34.065Z,958.81
2023-04-09T03:36:33.992Z,958.83
2023-04-09T03:37:34.013Z,958.82
2023-04-09T03:38:33.969Z,958.83
2023-04-09T03:39:33.932Z,958.87
2023-04-09T03:40:33.973Z,958.85
2023-04-09T03:41:33.919Z,958.89
2023-04-09T03:42:33.927Z,958.84
2023-04-09T03:43:33.889Z,958.86
2023-04-09T03:44:33.930Z,958.83
2023-04-09T03:45:33.870Z,958.85
2023-04-09T03:46:33.872Z,958.86
2023-04-09T03:47:33.869Z,958.90
2023-04-09T03:48:33.859Z,958.87
2023-04-09T03:49:33.818Z,958.88
2023-04-09T03:50:33.813Z,958.85
2023-04-09T03:51:33.786Z,958.86
2023-04-09T03:52:33.771Z,958.88
2023-04-09T03:53:33.805Z,958.85
2023-04-09T03:54:33.768Z,958.86
2023-04-09T03:55:33.737Z,958.85
2023-04-09T03:56:33.731Z,958.88
2023-04-09T03:57:33.695Z,958.86
2023-04-09T03:58:33.681Z,958.84
2023-04-09T03:59:33.704Z,958.82
2023-04-09T04:00:33.681Z,958.83
2023-04-09T04:01:33.833Z,958.81
2023-04-09T04:02:34.031Z,958.78
2023-04-09T04:03:33.864Z,958.83
2023-04-09T04:04:33.718Z,958.78
2023-04-09T04:05:33.611Z,958.77
2023-04-09T04:06:33.619Z,958.76
2023-04-09T04:07:33.581Z,958.75
2023-04-09T04:08:33.558Z,958.72
2023-04-09T04:09:33.546Z,958.79
2023-04-09T04:10:33.540Z,958.75
2023-04-09T04:11:33.551Z,958.73
2023-04-09T04:12:33.524Z,958.76
2023-04-09T04:13:33.485Z,958.77
2023-04-09T04:14:33.486Z,958.76
2023-04-09T04:15:33.484Z,958.77
2023-04-09T04:16:33.459Z,958.75
2023-04-09T04:17:33.506Z,958.81
2023-04-09T04:18:33.429Z,958.73
2023-04-09T04:19:33.413Z,958.80
2023-04-09T04:20:33.396Z,958.77
2023-04-09T04:21:33.374Z,958.80
2023-04-09T04:22:33.390Z,958.83
2023-04-09T04:23:33.364Z,958.79
2023-04-09T04:24:33.349Z,958.83
2023-04-09T04:25:33.366Z,958.83
2023-04-09T04:26:33.318Z,958.81
2023-04-09T04:27:33.302Z,958.84
2023-04-09T04:28:33.296Z,958.84
2023-04-09T04:29:33.301Z,958.84
2023-04-09T04:30:33.261Z,958.85
2023-04-09T04:31:33.311Z,958.87
2023-04-09T04:32:33.276Z,958.90
2023-04-09T04:33:33.242Z,958.89
2023-04-09T04:34:33.244Z,958.90
2023-04-09T04:35:33.229Z,958.91
2023-04-09T04:36:33.204Z,958.93
2023-04-09T04:37:33.220Z,958.92
2023-04-09T04:38:33.174Z,958.91
2023-04-09T04:39:33.158Z,958.90
2023-04-09T04:40:33.141Z,958.88
2023-04-09T04:41:33.129Z,958.92
2023-04-09T04:42:33.127Z,958.84
2023-04-09T04:43:33.102Z,958.86
2023-04-09T04:44:33.092Z,958.89
2023-04-09T04:45:33.135Z,958.90
2023-04-09T04:46:33.062Z,958.89
2023-04-09T04:47:33.101Z,958.90
2023-04-09T04:48:33.052Z,958.89
2023-04-09T04:49:33.010Z,958.86
2023-04-09T04:50:33.037Z,958.89
2023-04-09T04:51:32.991Z,958.93
2023-04-09T04:52:32.979Z,958.93
2023-04-09T04:53:32.963Z,958.90
2023-04-09T04:54:32.959Z,958.89
2023-04-09T04:55:32.974Z,958.87
2023-04-09T04:56:32.986Z,958.90
2023-04-09T04:57:32.922Z,958.91
2023-04-09T04:58:32.937Z,958.91
2023-04-09T04:59:32.899Z,958.91
2023-04-09T05:00:32.879Z,958.88
2023-04-09T05:01:32.996Z,958.92
2023-04-09T05:02:32.964Z,958.90
2023-04-09T05:03:32.930Z,958.92
2023-04-09T05:04:32.835Z,958.91
2023-04-09T05:05:32.804Z,958.93
2023-04-09T05:06:32.789Z,958.95
2023-04-09T05:07:32.819Z,958.94
2023-04-09T05:08:32.770Z,958.93
2023-04-09T05:09:32.766Z,958.93
2023-04-09T05:10:32.758Z,958.98
2023-04-09T05:11:32.738Z,958.96
2023-04-09T05:12:32.746Z,958.97
2023-04-09T05:13:32.708Z,958.98
2023-04-09T05:14:32.726Z,959.01
2023-04-09T05:15:32.692Z,958.97
2023-04-09T05:16:33.300Z,959.00
2023-04-09T05:17:32.699Z,959.02
2023-04-09T05:18:32.656Z,958.99
2023-04-09T05:19:32.651Z,958.99
2023-04-09T05:20:32.632Z,959.02
2023-04-09T05:21:32.641Z,959.00
2023-04-09T05:22:32.598Z,959.01
2023-04-09T05:23:32.593Z,959.03
2023-04-09T05:24:32.598Z,959.04
2023-04-09T05:25:32.589Z,959.03
2023-04-09T05:26:32.528Z,959.02
2023-04-09T05:27:32.514Z,959.04
2023-04-09T05:28:32.504Z,959.04
2023-04-09T05:29:32.505Z,959.05
2023-04-09T05:30:32.585Z,959.08
2023-04-09T05:31:32.509Z,959.08
2023-04-09T05:32:32.490Z,959.09
2023-04-09T05:33:32.433Z,959.10
2023-04-09T05:34:32.458Z,959.11
2023-04-09T05:35:32.508Z,959.09
2023-04-09T05:36:32.444Z,959.11
2023-04-09T05:37:32.398Z,959.14
2023-04-09T05:38:32.391Z,959.10
2023-04-09T05:39:32.365Z,959.10
2023-04-09T05:40:32.398Z,959.13
2023-04-09T05:41:32.338Z,959.12
2023-04-09T05:42:32.376Z,959.06
2023-04-09T05:43:32.302Z,959.08
2023-04-09T05:44:32.306Z,959.09
2023-04-09T05:45:32.304Z,959.10
2023-04-09T05:46:32.316Z,959.16
2023-04-09T05:47:32.323Z,959.13
2023-04-09T05:48:32.247Z,959.13
2023-04-09T05:49:32.289Z,959.14
2023-04-09T05:50:38.204Z,959.14
2023-04-09T05:51:32.220Z,959.13
2023-04-09T05:52:32.234Z,959.09
2023-04-09T05:53:32.188Z,959.09
2023-04-09T05:54:32.219Z,959.11
2023-04-09T05:55:32.185Z,959.15
2023-04-09T05:56:32.165Z,959.13
2023-04-09T05:57:32.163Z,959.13
2023-04-09T05:58:32.155Z,959.11
2023-04-09T05:59:32.105Z,959.11
2023-04-09T06:00:32.114Z,959.09
2023-04-09T06:01:32.128Z,959.16
2023-04-09T06:02:32.201Z,959.16
2023-04-09T06:03:32.184Z,959.15
2023-04-09T06:04:32.129Z,959.17
2023-04-09T06:05:32.063Z,959.20
2023-04-09T06:06:32.034Z,959.24
2023-04-09T06:07:32.036Z,959.26
2023-04-09T06:08:32.005Z,959.22
2023-04-09T06:09:31.989Z,959.21
2023-04-09T06:10:31.978Z,959.23
2023-04-09T06:11:31.947Z,959.24
2023-04-09T06:12:31.958Z,959.22
2023-04-09T06:13:31.944Z,959.23
2023-04-09T06:14:31.904Z,959.23
2023-04-09T06:15:31.969Z,959.27
2023-04-09T06:16:31.902Z,959.26
2023-04-09T06:17:31.927Z,959.26
2023-04-09T06:18:31.869Z,959.26
2023-04-09T06:19:31.874Z,959.24
2023-04-09T06:20:31.886Z,959.28
2023-04-09T06:21:31.874Z,959.26
2023-04-09T06:22:31.838Z,959.25
2023-04-09T06:23:31.820Z,959.29
2023-04-09T06:24:31.773Z,959.27
2023-04-09T06:25:31.781Z,959.27
2023-04-09T06:26:31.795Z,959.27
2023-04-09T06:27:31.753Z,959.30
2023-04-09T06:28:31.745Z,959.34
2023-04-09T06:29:31.738Z,959.34
2023-04-09T06:30:31.725Z,959.31
2023-04-09T06:31:31.739Z,959.31
2023-04-09T06:32:33.741Z,959.31
2023-04-09T06:33:31.736Z,959.37
2023-04-09T06:34:31.693Z,959.38
2023-04-09T06:35:31.667Z,959.40
2023-04-09T06:36:31.638Z,959.40
2023-04-09T06:37:31.616Z,959.39
2023-04-09T06:38:31.589Z,959.39
2023-04-09T06:39:31.583Z,959.41
2023-04-09T06:40:31.635Z,959.38
2023-04-09T06:41:31.543Z,959.41
2023-04-09T06:42:31.550Z,959.39
2023-04-09T06:43:31.623Z,959.38
2023-04-09T06:44:31.542Z,959.40
2023-04-09T06:45:31.615Z,959.40
2023-04-09T06:46:31.536Z,959.39
2023-04-09T06:47:31.490Z,959.36
2023-04-09T06:48:31.538Z,959.35
2023-04-09T06:49:31.442Z,959.39
2023-04-09T06:50:31.430Z,959.33
2023-04-09T06:51:31.458Z,959.35
2023-04-09T06:52:31.422Z,959.38
2023-04-09T06:53:31.431Z,959.33
2023-04-09T06:54:31.369Z,959.32
2023-04-09T06:55:31.422Z,959.34
2023-04-09T06:56:31.408Z,959.32
2023-04-09T06:57:31.346Z,959.33
2023-04-09T06:58:31.328Z,959.33
2023-04-09T06:59:31.326Z,959.37
2023-04-09T07:00:31.346Z,959.37
2023-04-09T07:01:31.345Z,959.41
2023-04-09T07:02:31.474Z,959.36
2023-04-09T07:03:31.585Z,959.40
2023-04-09T07:04:31.349Z,959.39
2023-04-09T07:05:31.297Z,959.36
2023-04-09T07:06:31.230Z,959.38
2023-04-09T07:07:31.233Z,959.42
2023-04-09T07:08:31.269Z,959.43
2023-04-09T07:09:31.212Z,959.40
2023-04-09T07:10:31.157Z,959.41
2023-04-09T07:11:31.157Z,959.38
2023-04-09T07:12:31.193Z,959.36
2023-04-09T07:13:31.137Z,959.39
2023-04-09T07:14:31.144Z,959.41
2023-04-09T07:15:31.100Z,959.39
2023-04-09T07:16:31.129Z,959.44
2023-04-09T07:17:31.110Z,959.39
2023-04-09T07:18:31.094Z,959.43
2023-04-09T07:19:31.085Z,959.42
2023-04-09T07:20:31.038Z,959.45
2023-04-09T07:21:31.017Z,959.48
2023-04-09T07:22:31.028Z,959.46
2023-04-09T07:23:31.040Z,959.45
2023-04-09T07:24:31.004Z,959.45
2023-04-09T07:25:30.986Z,959.44
2023-04-09T07:26:30.948Z,959.45
2023-04-09T07:27:30.975Z,959.48
2023-04-09T07:28:30.956Z,959.47
2023-04-09T07:29:30.921Z,959.47
2023-04-09T07:30:30.904Z,959.49
2023-04-09T07:31:30.960Z,959.50
2023-04-09T07:32:31.113Z,959.56
2023-04-09T07:33:30.868Z,959.51
2023-04-09T07:34:31.101Z,959.56
2023-04-09T07:35:30.879Z,959.59
2023-04-09T07:36:30.828Z,959.57
2023-04-09T07:37:30.806Z,959.60
2023-04-09T07:38:30.808Z,959.60
2023-04-09T07:39:30.821Z,959.58
2023-04-09T07:40:30.768Z,959.57
2023-04-09T07:41:30.744Z,959.59
2023-04-09T07:42:30.758Z,959.58
2023-04-09T07:43:30.760Z,959.56
2023-04-09T07:44:30.715Z,959.52
2023-04-09T07:45:30.726Z,959.54
2023-04-09T07:46:30.721Z,959.54
2023-04-09T07:47:30.710Z,959.59
2023-04-09T07:48:30.669Z,959.52
2023-04-09T07:49:30.651Z,959.56
2023-04-09T07:50:30.652Z,959.55
2023-04-09T07:51:30.636Z,959.57
2023-04-09T07:52:30.610Z,959.60
2023-04-09T07:53:30.646Z,959.57
2023-04-09T07:54:30.598Z,959.52
2023-04-09T07:55:30.611Z,959.52
2023-04-09T07:56:30.570Z,959.52
2023-04-09T07:57:30.554Z,959.56
2023-04-09T07:58:30.553Z,959.54
2023-04-09T07:59:30.535Z,959.54
2023-04-09T08:00:30.509Z,959.56
2023-04-09T08:01:30.496Z,959.60
2023-04-09T08:02:30.695Z,959.62
2023-04-09T08:03:30.820Z,959.62
2023-04-09T08:04:30.539Z,959.63
2023-04-09T08:05:30.467Z,959.61
2023-04-09T08:06:30.432Z,959.54
2023-04-09T08:07:30.410Z,959.54
2023-04-09T08:08:30.424Z,959.48
2023-04-09T08:09:30.419Z,959.55
2023-04-09T08:10:30.379Z,959.54
2023-04-09T08:11:30.392Z,959.52
2023-04-09T08:12:30.375Z,959.53
2023-04-09T08:13:30.337Z,959.53
2023-04-09T08:14:30.378Z,959.53
2023-04-09T08:15:30.330Z,959.47
2023-04-09T08:16:30.414Z,959.50
2023-04-09T08:17:30.283Z,959.46
2023-04-09T08:18:30.271Z,959.48
2023-04-09T08:19:30.246Z,959.46
2023-04-09T08:20:30.265Z,959.45
2023-04-09T08:21:30.262Z,959.47
2023-04-09T08:22:30.224Z,959.46
2023-04-09T08:23:30.215Z,959.46
2023-04-09T08:24:30.214Z,959.49
2023-04-09T08:25:30.176Z,959.49
2023-04-09T08:26:30.192Z,959.47
2023-04-09T08:27:30.165Z,959.44
2023-04-09T08:28:30.154Z,959.41
2023-04-09T08:29:30.148Z,959.41
2023-04-09T08:30:30.119Z,959.40
2023-04-09T08:31:30.181Z,959.41
2023-04-09T08:32:30.116Z,959.44
2023-04-09T08:33:30.158Z,959.44
2023-04-09T08:34:30.048Z,959.44
2023-04-09T08:35:30.056Z,959.46
2023-04-09T08:36:30.134Z,959.49
2023-04-09T08:37:30.027Z,959.50
2023-04-09T08:38:30.023Z,959.51
2023-04-09T08:39:30.025Z,959.54
2023-04-09T08:40:29.980Z,959.52
2023-04-09T08:41:29.968Z,959.53
2023-04-09T08:42:29.958Z,959.56
2023-04-09T08:43:42.007Z,959.55
2023-04-09T08:44:29.935Z,959.54
2023-04-09T08:45:29.906Z,959.57
2023-04-09T08:46:29.904Z,959.60
2023-04-09T08:47:29.976Z,959.61
2023-04-09T08:48:30.032Z,959.61
2023-04-09T08:49:29.891Z,959.66
2023-04-09T08:50:29.896Z,959.67
2023-04-09T08:51:29.841Z,959.67
2023-04-09T08:52:29.850Z,959.63
2023-04-09T08:53:29.818Z,959.69
2023-04-09T08:54:29.840Z,959.62
2023-04-09T08:55:29.783Z,959.68
2023-04-09T08:56:29.771Z,959.68
2023-04-09T08:57:29.774Z,959.69
2023-04-09T08:58:29.732Z,959.72
2023-04-09T08:59:29.751Z,959.74
2023-04-09T09:00:29.730Z,959.73
2023-04-09T09:01:29.764Z,959.75
2023-04-09T09:02:29.774Z,959.74
2023-04-09T09:03:29.795Z,959.75
2023-04-09T09:04:29.749Z,959.73
2023-04-09T09:05:29.657Z,959.74
2023-04-09T09:06:29.657Z,959.74
2023-04-09T09:07:29.677Z,959.77
2023-04-09T09:08:29.637Z,959.74
2023-04-09T09:09:29.613Z,959.74
2023-04-09T09:10:29.573Z,959.74
2023-04-09T09:11:29.623Z,959.71
2023-04-09T09:12:29.571Z,959.75
2023-04-09T09:13:29.531Z,959.73
2023-04-09T09:14:29.525Z,959.75
2023-04-09T09:15:29.533Z,959.77
2023-04-09T09:16:29.549Z,959.71
2023-04-09T09:17:29.508Z,959.70
2023-04-09T09:18:29.477Z,959.70
2023-04-09T09:19:29.479Z,959.69
2023-04-09T09:20:29.470Z,959.71
2023-04-09T09:21:29.439Z,959.68
2023-04-09T09:22:29.404Z,959.73
2023-04-09T09:23:29.411Z,959.69
2023-04-09T09:24:29.418Z,959.73
2023-04-09T09:25:29.409Z,959.70
2023-04-09T09:26:29.378Z,959.69
2023-04-09T09:27:29.382Z,959.69
2023-04-09T09:28:29.324Z,959.68
2023-04-09T09:29:29.336Z,959.69
2023-04-09T09:30:29.311Z,959.67
2023-04-09T09:31:29.337Z,959.70
2023-04-09T09:32:29.346Z,959.68
2023-04-09T09:33:29.261Z,959.70
2023-04-09T09:34:29.254Z,959.65
2023-04-09T09:35:29.249Z,959.66
2023-04-09T09:36:29.281Z,959.72
2023-04-09T09:37:29.231Z,959.66
2023-04-09T09:38:29.203Z,959.71
2023-04-09T09:39:29.203Z,959.68
2023-04-09T09:40:29.217Z,959.69
2023-04-09T09:41:29.157Z,959.68
2023-04-09T09:42:29.167Z,959.70
2023-04-09T09:43:29.155Z,959.70
2023-04-09T09:44:29.156Z,959.70
2023-04-09T09:45:29.098Z,959.73
2023-04-09T09:46:29.149Z,959.73
2023-04-09T09:47:29.161Z,959.72
2023-04-09T09:48:29.063Z,959.72
2023-04-09T09:49:29.120Z,959.74
2023-04-09T09:50:29.045Z,959.74
2023-04-09T09:51:29.100Z,959.71
2023-04-09T09:52:29.031Z,959.71
2023-04-09T09:53:29.002Z,959.72
2023-04-09T09:54:29.000Z,959.72
2023-04-09T09:55:29.001Z,959.71
2023-04-09T09:56:28.968Z,959.72
2023-04-09T09:57:28.984Z,959.67
2023-04-09T09:58:28.935Z,959.72
2023-04-09T09:59:28.914Z,959.68
2023-04-09T10:00:28.909Z,959.71
2023-04-09T10:01:28.940Z,959.71
2023-04-09T10:02:28.913Z,959.67
2023-04-09T10:03:28.923Z,959.65
2023-04-09T10:04:28.886Z,959.64
2023-04-09T10:05:28.902Z,959.64
2023-04-09T10:06:28.833Z,959.65
2023-04-09T10:07:28.853Z,959.69
2023-04-09T10:08:28.857Z,959.63
2023-04-09T10:09:28.780Z,959.59
2023-04-09T10:10:28.757Z,959.59
2023-04-09T10:11:28.779Z,959.61
2023-04-09T10:12:28.750Z,959.56
2023-04-09T10:13:28.746Z,959.54
2023-04-09T10:14:28.716Z,959.53
2023-04-09T10:15:28.694Z,959.56
2023-04-09T10:16:28.752Z,959.52
2023-04-09T10:17:28.730Z,959.52
2023-04-09T10:18:28.666Z,959.50
2023-04-09T10:19:28.666Z,959.54
2023-04-09T10:20:28.638Z,959.50
2023-04-09T10:21:28.623Z,959.50
2023-04-09T10:22:28.637Z,959.50
2023-04-09T10:23:28.583Z,959.54
2023-04-09T10:24:28.588Z,959.51
2023-04-09T10:25:28.584Z,959.52
2023-04-09T10:26:28.555Z,959.54
2023-04-09T10:27:28.578Z,959.54
2023-04-09T10:28:28.538Z,959.56
2023-04-09T10:29:28.534Z,959.56
2023-04-09T10:30:28.531Z,959.58
2023-04-09T10:31:28.537Z,959.56
2023-04-09T10:32:28.800Z,959.53
2023-04-09T10:33:28.460Z,959.52
2023-04-09T10:34:28.485Z,959.50
2023-04-09T10:35:28.452Z,959.49
2023-04-09T10:36:28.464Z,959.51
2023-04-09T10:37:28.525Z,959.46
2023-04-09T10:39:56.465Z,959.47
2023-04-09T10:40:01.832Z,959.47
2023-04-09T10:41:01.836Z,959.44
2023-04-09T10:42:01.809Z,959.44
2023-04-09T10:43:01.764Z,959.44
2023-04-09T10:44:01.747Z,959.41
2023-04-09T10:45:01.762Z,959.41
2023-04-09T10:46:01.764Z,959.35
2023-04-09T10:47:01.733Z,959.35
2023-04-09T10:48:01.764Z,959.36
2023-04-09T10:49:01.688Z,959.35
2023-04-09T10:50:01.670Z,959.30
2023-04-09T10:51:01.688Z,959.35
2023-04-09T10:52:01.729Z,959.31
2023-04-09T10:53:01.655Z,959.34
2023-04-09T10:54:01.618Z,959.32
2023-04-09T10:55:01.617Z,959.30
2023-04-09T10:56:01.612Z,959.32
2023-04-09T10:57:01.599Z,959.30
2023-04-09T10:58:01.599Z,959.33
2023-04-09T10:59:01.554Z,959.27
2023-04-09T11:00:01.567Z,959.28
2023-04-09T11:01:01.543Z,959.30
2023-04-09T11:02:01.593Z,959.26
2023-04-09T11:03:01.875Z,959.25
2023-04-09T11:04:01.487Z,959.29
2023-04-09T11:05:01.694Z,959.26
2023-04-09T11:06:01.489Z,959.29
2023-04-09T11:07:01.494Z,959.28
2023-04-09T11:08:01.446Z,959.32
2023-04-09T11:09:01.445Z,959.32
2023-04-09T11:10:01.432Z,959.31
2023-04-09T11:11:02.087Z,959.29
2023-04-09T11:12:01.455Z,959.32
2023-04-09T11:13:01.442Z,959.29
2023-04-09T11:14:01.387Z,959.25
2023-04-09T11:15:01.356Z,959.32
2023-04-09T11:16:01.618Z,959.28
2023-04-09T11:17:01.408Z,959.35
2023-04-09T11:18:01.346Z,959.27
2023-04-09T11:19:01.284Z,959.31
2023-04-09T11:20:01.284Z,959.27
2023-04-09T11:21:01.276Z,959.28
2023-04-09T11:22:01.309Z,959.31
2023-04-09T11:23:01.377Z,959.32
2023-04-09T11:24:01.225Z,959.38
2023-04-09T11:25:01.232Z,959.38
2023-04-09T11:26:01.237Z,959.37
2023-04-09T11:27:01.173Z,959.38
2023-04-09T11:28:01.250Z,959.42
2023-04-09T11:29:01.178Z,959.44
2023-04-09T11:30:01.138Z,959.38
2023-04-09T11:31:01.170Z,959.36
2023-04-09T11:32:01.230Z,959.44
2023-04-09T11:33:01.130Z,959.38
2023-04-09T11:34:01.087Z,959.35
2023-04-09T11:35:01.098Z,959.41
2023-04-09T11:36:01.112Z,959.39
2023-04-09T11:37:01.053Z,959.40
2023-04-09T11:38:01.031Z,959.42
2023-04-09T11:39:01.038Z,959.40
2023-04-09T11:40:01.003Z,959.42
2023-04-09T11:41:00.982Z,959.43
2023-04-09T11:42:00.993Z,959.45
2023-04-09T11:43:00.992Z,959.48
2023-04-09T11:44:00.938Z,959.45
2023-04-09T11:45:00.919Z,959.40
2023-04-09T11:46:00.940Z,959.47
2023-04-09T11:47:00.956Z,959.47
2023-04-09T11:48:00.939Z,959.49
2023-04-09T11:49:00.873Z,959.50
2023-04-09T11:50:00.906Z,959.47
2023-04-09T11:51:00.885Z,959.47
2023-04-09T11:52:00.844Z,959.45
2023-04-09T11:53:00.813Z,959.49
2023-04-09T11:54:00.799Z,959.47
2023-04-09T11:55:00.830Z,959.50
2023-04-09T11:56:00.828Z,959.49
2023-04-09T11:57:00.780Z,959.48
2023-04-09T11:58:00.857Z,959.50
2023-04-09T11:59:00.751Z,959.53
2023-04-09T12:00:02.595Z,959.49
2023-04-09T12:01:00.766Z,959.51
2023-04-09T12:02:00.829Z,959.53
2023-04-09T12:03:00.926Z,959.56
2023-04-09T12:04:00.892Z,959.57
2023-04-09T12:05:00.702Z,959.53
2023-04-09T12:06:00.729Z,959.53
2023-04-09T12:07:00.638Z,959.56
2023-04-09T12:08:00.646Z,959.56
2023-04-09T12:09:00.618Z,959.55
2023-04-09T12:10:00.621Z,959.53
2023-04-09T12:11:00.590Z,959.51
2023-04-09T12:12:00.609Z,959.51
2023-04-09T12:13:00.565Z,959.53
2023-04-09T12:14:00.549Z,959.50
2023-04-09T12:15:00.549Z,959.51
2023-04-09T12:16:00.561Z,959.49
2023-04-09T12:17:00.560Z,959.53
2023-04-09T12:18:00.575Z,959.55
2023-04-09T12:19:00.473Z,959.52
2023-04-09T12:20:00.464Z,959.52
2023-04-09T12:21:00.467Z,959.52
2023-04-09T12:22:00.435Z,959.57
2023-04-09T12:23:00.409Z,959.55
2023-04-09T12:24:00.420Z,959.58
2023-04-09T12:25:00.442Z,959.57
2023-04-09T12:26:00.384Z,959.56
2023-04-09T12:27:00.419Z,959.56
2023-04-09T12:28:00.352Z,959.60
2023-04-09T12:29:00.371Z,959.58